createdAt,value
2022-10-14T00:02:41.429Z,55.60
2022-10-14T00:05:10.400Z,58.80
2022-10-14T00:07:39.810Z,56.50
2022-10-14T00:10:08.898Z,57.70
2022-10-14T00:12:37.688Z,51.60
2022-10-14T00:15:07.436Z,52.40
2022-10-14T00:17:36.877Z,52.50
2022-10-14T00:20:06.410Z,52.50
2022-10-14T00:22:35.441Z,57.50
2022-10-14T00:25:04.591Z,54.60
2022-10-14T00:27:34.140Z,54.50
2022-10-14T00:30:04.326Z,53.00
2022-10-14T00:32:33.264Z,49.90
2022-10-14T00:35:01.937Z,51.70
2022-10-14T00:37:32.175Z,56.10
2022-10-14T00:40:00.906Z,52.90
2022-10-14T00:42:34.213Z,54.80
2022-10-14T00:45:14.525Z,57.60
2022-10-14T00:47:44.935Z,52.00
2022-10-14T00:50:16.180Z,51.80
2022-10-14T00:52:46.887Z,57.20
2022-10-14T00:55:22.053Z,53.20
2022-10-14T00:57:51.232Z,52.90
2022-10-14T01:00:25.422Z,55.60
2022-10-14T01:02:57.122Z,54.50
2022-10-14T01:05:36.565Z,57.10
2022-10-14T01:08:27.191Z,55.40
2022-10-14T01:11:21.420Z,53.70
2022-10-14T01:14:09.220Z,54.70
2022-10-14T01:17:00.109Z,53.90
2022-10-14T01:23:16.481Z,58.90
2022-10-14T01:26:42.636Z,55.00
2022-10-14T01:29:39.398Z,58.90
2022-10-14T01:32:20.307Z,56.20
2022-10-14T01:35:21.231Z,58.70
2022-10-14T01:38:20.028Z,57.20
2022-10-14T01:41:05.280Z,58.20
2022-10-14T01:43:35.823Z,55.20
2022-10-14T01:46:08.306Z,52.80
2022-10-14T01:48:41.603Z,57.10
2022-10-14T01:51:18.890Z,55.60
2022-10-14T01:53:57.376Z,54.40
2022-10-14T01:56:30.578Z,68.60
2022-10-14T01:59:01.950Z,58.60
2022-10-14T02:01:35.052Z,56.00
2022-10-14T02:04:14.682Z,56.30
2022-10-14T02:06:52.181Z,57.70
2022-10-14T02:10:00.511Z,59.90
2022-10-14T02:13:16.709Z,56.20
2022-10-14T02:15:51.374Z,57.60
2022-10-14T02:18:37.542Z,54.80
2022-10-14T02:21:29.013Z,54.80
2022-10-14T02:24:05.807Z,55.00
2022-10-14T02:26:36.999Z,54.00
2022-10-14T02:29:06.872Z,57.20
2022-10-14T02:31:40.196Z,54.90
2022-10-14T02:34:13.076Z,56.50
2022-10-14T02:36:43.993Z,55.90
2022-10-14T02:39:19.761Z,58.70
2022-10-14T02:41:48.640Z,57.50
2022-10-14T02:44:17.390Z,58.80
2022-10-14T02:46:48.644Z,60.80
2022-10-14T02:49:18.297Z,56.10
2022-10-14T02:51:47.535Z,57.70
2022-10-14T02:54:16.347Z,59.40
2022-10-14T02:56:45.064Z,57.50
2022-10-14T02:59:13.791Z,58.90
2022-10-14T03:01:42.625Z,57.70
2022-10-14T03:04:11.671Z,58.50
2022-10-14T03:06:41.210Z,60.30
2022-10-14T03:09:10.065Z,55.60
2022-10-14T03:11:40.798Z,57.00
2022-10-14T03:14:12.558Z,59.30
2022-10-14T03:16:41.250Z,58.20
2022-10-14T03:19:10.619Z,57.30
2022-10-14T03:21:43.945Z,60.70
2022-10-14T03:24:17.708Z,61.70
2022-10-14T03:26:47.088Z,59.10
2022-10-14T03:29:17.237Z,59.70
2022-10-14T03:32:15.063Z,58.40
2022-10-14T03:35:02.201Z,61.40
2022-10-14T03:37:31.347Z,57.30
2022-10-14T03:40:00.619Z,58.80
2022-10-14T03:42:35.536Z,64.40
2022-10-14T03:45:04.887Z,60.00
2022-10-14T03:47:34.612Z,59.20
2022-10-14T03:50:05.220Z,62.80
2022-10-14T03:52:44.833Z,62.20
2022-10-14T03:55:21.998Z,63.90
2022-10-14T03:57:52.003Z,66.80
2022-10-14T04:00:21.415Z,67.00
2022-10-14T04:02:52.408Z,66.30
2022-10-14T04:05:47.360Z,65.10
2022-10-14T04:08:24.702Z,67.70
2022-10-14T04:10:58.841Z,68.10
2022-10-14T04:13:29.847Z,66.80
2022-10-14T04:16:05.049Z,67.50
2022-10-14T04:21:12.926Z,67.10
2022-10-14T04:23:43.736Z,67.40
2022-10-14T04:26:17.543Z,73.70
2022-10-14T04:28:47.539Z,69.80
2022-10-14T04:31:27.016Z,69.00
2022-10-14T04:34:00.435Z,71.10
2022-10-14T04:36:32.986Z,70.50
2022-10-14T04:39:02.876Z,71.80
2022-10-14T04:41:31.757Z,68.10
2022-10-14T04:44:02.545Z,72.90
2022-10-14T04:46:35.695Z,71.20
2022-10-14T04:49:06.925Z,71.70
2022-10-14T04:51:40.141Z,72.50
2022-10-14T04:54:19.058Z,71.90
2022-10-14T04:57:05.996Z,72.20
2022-10-14T04:59:36.037Z,70.30
2022-10-14T05:02:33.910Z,64.60
2022-10-14T05:05:03.590Z,68.00
2022-10-14T05:07:35.130Z,65.70
2022-10-14T05:10:17.730Z,68.80
2022-10-14T05:12:48.714Z,71.10
2022-10-14T05:15:17.919Z,75.80
2022-10-14T05:18:13.029Z,73.10
2022-10-14T05:20:59.753Z,76.90
2022-10-14T05:23:34.976Z,74.60
2022-10-14T05:26:04.507Z,71.80
2022-10-14T05:28:33.540Z,71.30
2022-10-14T05:31:02.250Z,71.90
2022-10-14T05:33:33.143Z,73.40
2022-10-14T05:36:02.450Z,71.60
2022-10-14T05:38:34.411Z,73.80
2022-10-14T05:41:04.440Z,70.90
2022-10-14T05:43:34.305Z,75.60
2022-10-14T05:46:07.284Z,72.80
2022-10-14T05:48:39.729Z,73.50
2022-10-14T05:51:08.640Z,72.10
2022-10-14T05:53:40.129Z,69.90
2022-10-14T05:56:13.918Z,70.20
2022-10-14T05:58:42.846Z,67.60
2022-10-14T06:01:12.598Z,68.40
2022-10-14T06:03:43.450Z,70.40
2022-10-14T06:06:16.868Z,71.00
2022-10-14T06:08:46.187Z,71.00
2022-10-14T06:11:14.989Z,71.60
2022-10-14T06:13:44.231Z,68.40
2022-10-14T06:16:13.316Z,70.90
2022-10-14T06:18:42.147Z,66.80
2022-10-14T06:21:12.768Z,70.40
2022-10-14T06:23:41.661Z,67.90
2022-10-14T06:26:10.608Z,66.30
2022-10-14T06:28:39.896Z,69.10
2022-10-14T06:31:08.687Z,71.90
2022-10-14T06:33:37.529Z,69.80
2022-10-14T06:36:07.288Z,74.50
2022-10-14T06:38:36.111Z,70.20
2022-10-14T06:41:05.103Z,73.10
2022-10-14T06:43:35.483Z,71.20
2022-10-14T06:46:05.726Z,73.70
2022-10-14T06:48:34.542Z,72.60
2022-10-14T06:51:03.504Z,73.60
2022-10-14T06:53:32.342Z,74.60
2022-10-14T06:56:05.368Z,75.30
2022-10-14T06:58:34.311Z,75.80
2022-10-14T07:01:05.800Z,73.30
2022-10-14T07:03:39.465Z,68.80
2022-10-14T07:06:09.253Z,72.10
2022-10-14T07:08:38.094Z,71.30
2022-10-14T07:11:07.245Z,70.40
2022-10-14T07:13:36.053Z,66.40
2022-10-14T07:16:05.089Z,65.90
2022-10-14T07:18:33.933Z,66.90
2022-10-14T07:21:06.833Z,64.50
2022-10-14T07:23:35.680Z,65.00
2022-10-14T07:26:04.822Z,61.30
2022-10-14T07:28:34.441Z,61.20
2022-10-14T07:31:10.150Z,53.70
2022-10-14T07:33:40.944Z,55.60
2022-10-14T07:36:18.467Z,52.90
2022-10-14T07:38:51.064Z,52.60
2022-10-14T07:41:23.949Z,58.70
2022-10-14T07:43:57.567Z,52.80
2022-10-14T07:46:33.216Z,65.70
2022-10-14T07:49:11.576Z,50.60
2022-10-14T07:51:41.741Z,50.30
2022-10-14T07:54:24.764Z,48.30
2022-10-14T07:56:53.648Z,49.30
2022-10-14T07:59:22.332Z,46.10
2022-10-14T08:01:52.898Z,51.90
2022-10-14T08:04:22.165Z,46.40
2022-10-14T08:06:51.817Z,50.00
2022-10-14T08:09:21.223Z,50.40
2022-10-14T08:11:50.022Z,51.30
2022-10-14T08:14:18.818Z,48.90
2022-10-14T08:16:47.885Z,49.70
2022-10-14T08:19:16.706Z,45.80
2022-10-14T08:21:45.647Z,44.80
2022-10-14T08:24:14.754Z,46.60
2022-10-14T08:26:57.039Z,43.40
2022-10-14T08:29:27.099Z,44.30
2022-10-14T08:31:55.880Z,42.30
2022-10-14T08:34:24.833Z,41.20
2022-10-14T08:36:53.715Z,43.90
2022-10-14T08:39:22.642Z,44.00
2022-10-14T08:42:20.941Z,42.40
2022-10-14T08:44:58.031Z,42.30
2022-10-14T08:47:37.861Z,42.60
2022-10-14T08:50:27.115Z,41.10
2022-10-14T08:53:33.441Z,48.00
2022-10-14T08:56:03.494Z,42.60
2022-10-14T08:58:47.407Z,43.70
2022-10-14T09:01:44.694Z,42.30
2022-10-14T09:04:16.131Z,42.20
2022-10-14T09:06:49.118Z,42.20
2022-10-14T09:09:42.208Z,39.10
2022-10-14T09:12:20.929Z,44.70
2022-10-14T09:15:12.270Z,43.20
2022-10-14T09:17:59.282Z,41.40
2022-10-14T09:20:28.415Z,42.00
2022-10-14T09:23:25.476Z,44.40
2022-10-14T09:26:05.830Z,40.00
2022-10-14T09:28:44.569Z,40.80
2022-10-14T09:31:14.577Z,38.70
2022-10-14T09:33:45.285Z,40.50
2022-10-14T09:36:19.636Z,43.40
2022-10-14T09:38:53.699Z,38.90
2022-10-14T09:41:31.093Z,38.60
2022-10-14T09:44:25.574Z,39.40
2022-10-14T09:47:02.844Z,45.20
2022-10-14T09:49:39.220Z,37.90
2022-10-14T09:52:23.151Z,39.00
2022-10-14T09:55:01.517Z,38.60
2022-10-14T09:57:31.251Z,37.90
2022-10-14T10:00:05.062Z,39.40
2022-10-14T10:02:45.244Z,40.90
2022-10-14T10:05:32.731Z,39.80
2022-10-14T10:08:18.796Z,39.00
2022-10-14T10:11:06.862Z,37.40
2022-10-14T10:13:45.467Z,43.80
2022-10-14T10:16:34.804Z,39.00
2022-10-14T10:19:33.628Z,37.80
2022-10-14T10:22:21.978Z,38.20
2022-10-14T10:24:59.332Z,36.80
2022-10-14T10:27:35.536Z,35.20
2022-10-14T10:30:48.819Z,35.20
2022-10-14T10:33:36.753Z,37.10
2022-10-14T10:36:34.166Z,29.50
2022-10-14T10:39:38.635Z,33.00
2022-10-14T10:42:28.784Z,28.80
2022-10-14T10:45:19.543Z,35.00
2022-10-14T10:48:01.235Z,27.70
2022-10-14T10:50:48.039Z,28.30
2022-10-14T10:54:09.427Z,30.50
2022-10-14T10:57:02.175Z,29.20
2022-10-14T11:00:01.764Z,28.90
2022-10-14T11:02:57.676Z,26.80
2022-10-14T11:06:35.588Z,24.30
2022-10-14T11:09:30.652Z,38.00
2022-10-14T11:12:42.649Z,32.50
2022-10-14T11:16:15.162Z,30.80
2022-10-14T11:19:14.760Z,27.50
2022-10-14T11:21:56.565Z,35.10
2022-10-14T11:24:39.890Z,28.80
2022-10-14T11:27:23.902Z,26.10
2022-10-14T11:30:15.173Z,27.80
2022-10-14T11:32:52.604Z,26.50
2022-10-14T11:35:53.999Z,28.00
2022-10-14T11:38:30.786Z,26.80
2022-10-14T11:41:25.263Z,26.70
2022-10-14T11:44:32.173Z,25.00
2022-10-14T11:47:10.160Z,28.60
2022-10-14T11:49:53.987Z,27.30
2022-10-14T11:52:30.133Z,27.00
2022-10-14T11:55:18.046Z,26.70
2022-10-14T11:57:59.959Z,27.50
2022-10-14T12:00:34.049Z,31.00
2022-10-14T12:03:46.051Z,31.20
2022-10-14T12:06:47.613Z,36.00
2022-10-14T12:09:39.803Z,34.20
2022-10-14T12:12:19.683Z,33.70
2022-10-14T12:14:55.415Z,36.40
2022-10-14T12:17:50.004Z,30.50
2022-10-14T12:20:47.879Z,36.40
2022-10-14T12:23:40.001Z,32.00
2022-10-14T12:26:20.648Z,36.80
2022-10-14T12:28:52.784Z,35.80
2022-10-14T12:31:28.687Z,36.70
2022-10-14T12:34:31.381Z,33.30
2022-10-14T12:37:00.985Z,31.00
2022-10-14T12:39:35.151Z,30.00
2022-10-14T12:42:16.005Z,30.80
2022-10-14T12:44:56.221Z,28.70
2022-10-14T12:47:35.334Z,29.10
2022-10-14T12:50:25.789Z,31.00
2022-10-14T12:53:06.730Z,32.60
2022-10-14T12:58:54.410Z,27.00
2022-10-14T13:01:23.800Z,27.30
2022-10-14T13:04:20.185Z,28.20
2022-10-14T13:07:42.955Z,32.30
2022-10-14T13:10:43.223Z,28.10
2022-10-14T13:13:45.055Z,25.30
2022-10-14T13:16:25.916Z,41.50
2022-10-14T13:18:58.592Z,38.80
2022-10-14T13:21:34.870Z,31.40
2022-10-14T13:24:38.627Z,29.00
2022-10-14T13:27:37.559Z,36.40
2022-10-14T13:30:34.167Z,30.60
2022-10-14T13:33:25.113Z,28.70
2022-10-14T13:36:11.928Z,31.50
2022-10-14T13:38:51.990Z,32.90
2022-10-14T13:41:30.584Z,36.80
2022-10-14T13:44:02.523Z,28.40
2022-10-14T13:46:43.611Z,28.50
2022-10-14T13:49:23.473Z,35.30
2022-10-14T13:52:17.867Z,34.00
2022-10-14T13:54:46.717Z,32.60
2022-10-14T13:57:43.060Z,31.80
2022-10-14T14:00:58.139Z,32.00
2022-10-14T14:03:36.167Z,30.80
2022-10-14T14:06:15.602Z,34.60
2022-10-14T14:09:04.701Z,34.20
2022-10-14T14:11:37.495Z,31.00
2022-10-14T14:14:21.220Z,31.60
2022-10-14T14:17:03.997Z,33.50
2022-10-14T14:19:37.975Z,28.00
2022-10-14T14:22:32.038Z,33.10
2022-10-14T14:25:35.679Z,33.00
2022-10-14T14:28:15.558Z,31.30
2022-10-14T14:30:55.775Z,32.50
2022-10-14T14:33:36.035Z,29.40
2022-10-14T14:36:18.171Z,28.10
2022-10-14T14:39:01.215Z,30.30
2022-10-14T14:41:32.302Z,31.70
2022-10-14T14:44:24.534Z,31.70
2022-10-14T14:47:02.018Z,30.60
2022-10-14T14:49:36.014Z,31.40
2022-10-14T14:52:06.412Z,34.30
2022-10-14T14:54:44.928Z,29.90
2022-10-14T14:57:20.358Z,30.20
2022-10-14T15:00:03.125Z,35.50
2022-10-14T15:02:35.091Z,36.00
2022-10-14T15:05:11.999Z,46.60
2022-10-14T15:07:43.919Z,33.60
2022-10-14T15:10:30.667Z,75.10
2022-10-14T15:13:02.791Z,40.70
2022-10-14T15:15:35.206Z,32.50
2022-10-14T15:18:26.308Z,36.40
2022-10-14T15:21:24.601Z,31.90
2022-10-14T15:24:06.354Z,36.40
2022-10-14T15:26:38.612Z,38.30
2022-10-14T15:32:29.173Z,36.20
2022-10-14T15:35:02.353Z,42.80
2022-10-14T15:37:31.542Z,39.40
2022-10-14T15:40:32.650Z,37.70
2022-10-14T15:43:10.963Z,37.60
2022-10-14T15:45:44.782Z,36.80
2022-10-14T15:50:51.715Z,44.60
2022-10-14T15:53:20.594Z,46.30
2022-10-14T15:55:57.250Z,53.30
2022-10-14T15:58:36.774Z,70.30
2022-10-14T16:01:07.543Z,95.60
2022-10-14T16:03:46.350Z,111.60
2022-10-14T16:06:27.007Z,78.40
2022-10-14T16:09:01.502Z,70.50
2022-10-14T16:11:44.666Z,74.20
2022-10-14T16:14:17.764Z,66.30
2022-10-14T16:16:47.440Z,65.10
2022-10-14T16:19:18.086Z,61.70
2022-10-14T16:21:52.714Z,58.40
2022-10-14T16:24:27.957Z,58.40
2022-10-14T16:27:05.444Z,70.70
2022-10-14T16:29:46.422Z,64.70
2022-10-14T16:32:21.002Z,70.30
2022-10-14T16:34:51.598Z,70.80
2022-10-14T16:37:21.205Z,70.80
2022-10-14T16:39:53.943Z,67.80
2022-10-14T16:42:25.627Z,70.20
2022-10-14T16:44:58.206Z,71.50
2022-10-14T16:47:28.626Z,74.70
2022-10-14T16:50:27.201Z,83.90
2022-10-14T16:53:31.785Z,86.80
2022-10-14T16:56:04.427Z,85.60
2022-10-14T16:58:33.279Z,87.80
2022-10-14T17:01:09.267Z,80.70
2022-10-14T17:03:39.294Z,81.40
2022-10-14T17:06:08.558Z,78.60
2022-10-14T17:08:44.122Z,74.00
2022-10-14T17:11:16.381Z,79.10
2022-10-14T17:13:53.874Z,79.10
2022-10-14T17:16:27.471Z,76.60
2022-10-14T17:19:10.901Z,89.30
2022-10-14T17:21:53.249Z,81.50
2022-10-14T17:24:22.221Z,82.20
2022-10-14T17:26:51.374Z,84.70
2022-10-14T17:29:20.797Z,90.90
2022-10-14T17:34:24.084Z,86.10
2022-10-14T17:36:56.155Z,81.40
2022-10-14T17:39:29.588Z,80.20
2022-10-14T17:41:58.779Z,82.60
2022-10-14T17:44:29.069Z,102.90
2022-10-14T17:47:01.613Z,112.40
2022-10-14T17:49:31.557Z,126.80
2022-10-14T17:52:08.261Z,135.90
2022-10-14T17:54:37.422Z,146.80
2022-10-14T17:57:06.568Z,150.30
2022-10-14T17:59:35.896Z,143.50
2022-10-14T18:04:44.800Z,139.70
2022-10-14T18:07:23.476Z,150.40
2022-10-14T18:10:05.012Z,152.80
2022-10-14T18:12:37.329Z,155.80
2022-10-14T18:15:09.659Z,160.50
2022-10-14T18:17:41.966Z,159.00
2022-10-14T18:20:34.529Z,161.70
2022-10-14T18:23:04.081Z,157.90
2022-10-14T18:25:35.223Z,158.40
2022-10-14T18:28:07.964Z,153.30
2022-10-14T18:30:38.394Z,158.30
2022-10-14T18:33:07.582Z,163.80
2022-10-14T18:35:45.111Z,166.00
2022-10-14T18:38:16.563Z,162.20
2022-10-14T18:40:45.513Z,165.20
2022-10-14T18:43:14.634Z,150.90
2022-10-14T18:45:46.469Z,159.80
2022-10-14T18:48:23.013Z,156.20
2022-10-14T18:51:02.865Z,152.60
2022-10-14T18:53:33.903Z,147.80
2022-10-14T18:56:10.359Z,157.80
2022-10-14T18:58:53.691Z,149.40
2022-10-14T19:01:23.272Z,131.60
2022-10-14T19:03:53.870Z,139.30
2022-10-14T19:06:34.058Z,147.30
2022-10-14T19:09:04.673Z,131.00
2022-10-14T19:11:42.441Z,107.10
2022-10-14T19:14:15.684Z,94.20
2022-10-14T19:16:53.913Z,96.90
2022-10-14T19:19:23.237Z,93.90
2022-10-14T19:21:58.882Z,92.20
2022-10-14T19:24:30.818Z,115.00
2022-10-14T19:27:00.644Z,263.20
2022-10-14T19:29:34.832Z,180.20
2022-10-14T19:32:03.899Z,154.90
2022-10-14T19:34:32.808Z,104.40
2022-10-14T19:39:33.803Z,110.70
2022-10-14T19:45:31.414Z,85.10
2022-10-14T19:48:09.465Z,89.40
2022-10-14T19:50:47.085Z,87.30
2022-10-14T19:53:18.881Z,105.70
2022-10-14T19:55:48.048Z,99.70
2022-10-14T19:58:18.425Z,94.60
2022-10-14T20:00:47.489Z,84.10
2022-10-14T20:03:16.371Z,86.90
2022-10-14T20:05:45.267Z,92.30
2022-10-14T20:10:50.247Z,79.60
2022-10-14T20:13:20.916Z,87.10
2022-10-14T20:15:59.242Z,90.30
2022-10-14T20:18:30.038Z,111.50
2022-10-14T20:21:01.839Z,93.60
2022-10-14T20:23:33.850Z,97.70
2022-10-14T20:28:39.282Z,82.20
2022-10-14T20:31:11.830Z,81.40
2022-10-14T20:33:41.076Z,81.60
2022-10-14T20:36:19.061Z,74.60
2022-10-14T20:38:49.571Z,79.70
2022-10-14T20:41:23.786Z,79.10
2022-10-14T20:43:56.571Z,82.00
2022-10-14T20:46:25.627Z,80.40
2022-10-14T20:48:57.333Z,80.60
2022-10-14T20:54:02.569Z,70.60
2022-10-14T20:56:36.783Z,74.30
2022-10-14T20:59:08.440Z,82.20
2022-10-14T21:01:40.228Z,78.00
2022-10-14T21:04:09.287Z,74.10
2022-10-14T21:06:40.809Z,74.40
2022-10-14T21:09:11.971Z,76.70
2022-10-14T21:11:43.364Z,74.70
2022-10-14T21:14:17.013Z,78.70
2022-10-14T21:16:54.620Z,83.90
2022-10-14T21:19:46.652Z,77.70
2022-10-14T21:22:23.398Z,70.00
2022-10-14T21:25:10.504Z,71.40
2022-10-14T21:27:53.164Z,69.80
2022-10-14T21:30:25.289Z,72.70
2022-10-14T21:32:55.449Z,68.60
2022-10-14T21:35:27.309Z,68.50
2022-10-14T21:37:59.091Z,78.30
2022-10-14T21:40:34.505Z,66.10
2022-10-14T21:43:06.090Z,71.20
2022-10-14T21:46:00.250Z,69.70
2022-10-14T21:49:01.090Z,64.60
2022-10-14T21:51:38.259Z,66.10
2022-10-14T21:54:22.196Z,64.60
2022-10-14T21:57:12.291Z,65.80
2022-10-14T21:59:51.388Z,64.50
2022-10-14T22:02:29.345Z,67.20
2022-10-14T22:05:08.630Z,63.50
2022-10-14T22:07:56.518Z,62.80
2022-10-14T22:10:49.390Z,60.50
2022-10-14T22:13:57.863Z,64.80
2022-10-14T22:16:34.074Z,60.80
2022-10-14T22:19:19.918Z,66.20
2022-10-14T22:21:57.841Z,59.70
2022-10-14T22:24:40.849Z,62.40
2022-10-14T22:27:22.194Z,64.40
2022-10-14T22:30:08.877Z,59.40
2022-10-14T22:32:51.791Z,64.60
2022-10-14T22:38:10.822Z,64.00
2022-10-14T22:40:50.527Z,63.70
2022-10-14T22:43:35.067Z,64.70
2022-10-14T22:46:29.019Z,60.90
2022-10-14T22:49:09.228Z,67.80
2022-10-14T22:51:45.422Z,64.90
2022-10-14T22:54:19.588Z,63.50
2022-10-14T22:56:49.279Z,63.20
2022-10-14T22:59:46.175Z,60.20
2022-10-14T23:02:23.044Z,58.80
2022-10-14T23:04:57.088Z,59.40
2022-10-14T23:07:29.607Z,56.90
2022-10-14T23:10:15.151Z,61.90
2022-10-14T23:12:59.531Z,60.50
2022-10-14T23:15:37.282Z,59.60
2022-10-14T23:18:16.028Z,61.70
2022-10-14T23:21:01.382Z,60.90
2022-10-14T23:23:58.527Z,59.60
2022-10-14T23:26:33.361Z,59.30
2022-10-14T23:29:16.816Z,59.00
2022-10-14T23:31:54.483Z,59.40
2022-10-14T23:34:37.294Z,59.20
2022-10-14T23:37:17.148Z,61.30
2022-10-14T23:39:46.488Z,57.40
2022-10-14T23:42:26.551Z,57.50
2022-10-14T23:45:02.958Z,60.50
2022-10-14T23:47:33.080Z,66.30
2022-10-14T23:50:06.462Z,62.20
2022-10-14T23:55:09.723Z,67.80
2022-10-14T23:57:38.594Z,60.80
